createdAt,value
2022-12-25T00:01:53.683Z,82.93
2022-12-25T00:04:20.623Z,84.74
2022-12-25T00:06:47.689Z,83.56
2022-12-25T00:09:14.744Z,81.01
2022-12-25T00:11:44.250Z,80.78
2022-12-25T00:14:15.860Z,77.27
2022-12-25T00:16:42.964Z,74.65
2022-12-25T00:19:09.874Z,73.95
2022-12-25T00:21:36.934Z,74.98
2022-12-25T00:24:09.090Z,77.18
2022-12-25T00:26:42.079Z,76.03
2022-12-25T00:29:10.928Z,78.48
2022-12-25T00:31:38.028Z,81.17
2022-12-25T00:34:07.679Z,83.38
2022-12-25T00:36:41.605Z,82.29
2022-12-25T00:39:15.099Z,80.81
2022-12-25T00:41:44.234Z,79.69
2022-12-25T00:44:12.527Z,80.95
2022-12-25T00:46:44.271Z,81.51
2022-12-25T00:49:13.950Z,83.87
2022-12-25T00:51:41.004Z,84.78
2022-12-25T00:54:13.597Z,83.64
2022-12-25T00:56:40.584Z,83.18
2022-12-25T00:59:08.046Z,83.19
2022-12-25T01:01:37.938Z,82.77
2022-12-25T01:04:05.936Z,83.60
2022-12-25T01:06:33.095Z,85.33
2022-12-25T01:09:00.126Z,83.70
2022-12-25T01:11:27.324Z,85.46
2022-12-25T01:13:55.205Z,85.52
2022-12-25T01:16:28.343Z,82.78
2022-12-25T01:18:56.188Z,80.26
2022-12-25T01:21:23.479Z,82.44
2022-12-25T01:23:51.543Z,82.33
2022-12-25T01:26:19.304Z,83.30
2022-12-25T01:28:49.088Z,83.54
2022-12-25T01:31:22.398Z,84.48
2022-12-25T01:33:49.620Z,84.46
2022-12-25T01:36:27.113Z,84.90
2022-12-25T01:38:54.482Z,82.88
2022-12-25T01:41:27.575Z,82.44
2022-12-25T01:44:06.413Z,84.94
2022-12-25T01:46:34.926Z,83.71
2022-12-25T01:49:10.247Z,80.94
2022-12-25T01:51:59.523Z,78.09
2022-12-25T01:54:36.444Z,83.10
2022-12-25T01:57:04.745Z,84.27
2022-12-25T01:59:31.839Z,85.68
2022-12-25T02:01:59.747Z,84.54
2022-12-25T02:04:29.462Z,84.10
2022-12-25T02:06:56.606Z,86.35
2022-12-25T02:09:29.455Z,86.18
2022-12-25T02:11:56.557Z,86.86
2022-12-25T02:14:27.314Z,87.25
2022-12-25T02:17:04.885Z,88.13
2022-12-25T02:19:57.777Z,88.70
2022-12-25T02:22:42.041Z,88.73
2022-12-25T02:25:41.102Z,88.12
2022-12-25T02:28:45.967Z,87.93
2022-12-25T02:31:29.110Z,88.40
2022-12-25T02:34:19.641Z,87.30
2022-12-25T02:36:54.064Z,87.18
2022-12-25T02:39:59.807Z,82.94
2022-12-25T02:42:50.970Z,77.76
2022-12-25T02:45:25.751Z,75.83
2022-12-25T02:47:53.383Z,74.79
2022-12-25T02:50:21.287Z,74.61
2022-12-25T02:52:48.298Z,73.78
2022-12-25T02:55:17.890Z,80.93
2022-12-25T02:57:51.230Z,84.11
2022-12-25T03:00:19.322Z,84.97
2022-12-25T03:02:48.952Z,85.51
2022-12-25T03:05:19.985Z,85.48
2022-12-25T03:07:52.809Z,87.80
2022-12-25T03:10:19.947Z,87.43
2022-12-25T03:12:53.906Z,87.64
2022-12-25T03:15:27.552Z,87.09
2022-12-25T03:18:26.365Z,83.01
2022-12-25T03:20:53.910Z,86.75
2022-12-25T03:23:23.383Z,87.28
2022-12-25T03:25:50.413Z,88.97
2022-12-25T03:28:22.684Z,89.46
2022-12-25T03:31:04.514Z,88.78
2022-12-25T03:34:02.227Z,89.51
2022-12-25T03:36:36.634Z,89.20
2022-12-25T03:39:10.496Z,89.55
2022-12-25T03:41:49.034Z,89.59
2022-12-25T03:44:41.155Z,88.71
2022-12-25T03:47:27.503Z,89.04
2022-12-25T03:50:46.685Z,88.89
2022-12-25T03:53:25.192Z,89.11
2022-12-25T03:55:52.163Z,89.65
2022-12-25T03:58:23.204Z,90.38
2022-12-25T04:00:52.976Z,90.19
2022-12-25T04:03:20.688Z,89.74
2022-12-25T04:05:49.809Z,89.46
2022-12-25T04:08:17.277Z,89.13
2022-12-25T04:10:44.457Z,89.88
2022-12-25T04:13:37.112Z,89.73
2022-12-25T04:16:29.532Z,89.16
2022-12-25T04:19:16.735Z,89.28
2022-12-25T04:21:55.965Z,89.83
2022-12-25T04:24:23.086Z,88.60
2022-12-25T04:26:50.146Z,89.86
2022-12-25T04:29:17.693Z,89.31
2022-12-25T04:31:47.130Z,88.28
2022-12-25T04:34:16.771Z,87.28
2022-12-25T04:36:43.997Z,88.16
2022-12-25T04:39:11.158Z,88.12
2022-12-25T04:41:37.909Z,88.40
2022-12-25T04:44:05.748Z,88.91
2022-12-25T04:46:35.949Z,89.32
2022-12-25T04:49:05.895Z,89.65
2022-12-25T04:51:34.539Z,89.04
2022-12-25T04:54:01.622Z,89.18
2022-12-25T04:56:30.085Z,89.46
2022-12-25T04:58:57.546Z,89.49
2022-12-25T05:01:27.521Z,89.48
2022-12-25T05:04:00.693Z,88.67
2022-12-25T05:06:28.132Z,88.72
2022-12-25T05:08:56.324Z,88.98
2022-12-25T05:11:23.281Z,89.25
2022-12-25T05:13:57.320Z,89.27
2022-12-25T05:16:24.705Z,88.95
2022-12-25T05:18:52.634Z,89.68
2022-12-25T05:21:25.483Z,90.29
2022-12-25T05:24:13.967Z,86.97
2022-12-25T05:26:44.575Z,89.29
2022-12-25T05:29:14.227Z,89.78
2022-12-25T05:31:41.200Z,89.67
2022-12-25T05:34:11.056Z,90.22
2022-12-25T05:36:43.747Z,89.68
2022-12-25T05:39:11.224Z,85.71
2022-12-25T05:41:40.733Z,86.89
2022-12-25T05:44:07.831Z,88.78
2022-12-25T05:46:36.994Z,89.07
2022-12-25T05:49:06.658Z,89.22
2022-12-25T05:51:39.695Z,89.93
2022-12-25T05:54:07.806Z,89.04
2022-12-25T05:56:37.395Z,89.27
2022-12-25T05:59:07.125Z,88.75
2022-12-25T06:01:34.192Z,89.93
2022-12-25T06:04:04.569Z,90.34
2022-12-25T06:06:34.600Z,90.15
2022-12-25T06:09:03.649Z,90.57
2022-12-25T06:11:30.614Z,90.23
2022-12-25T06:14:00.196Z,89.83
2022-12-25T06:16:30.502Z,89.30
2022-12-25T06:19:01.027Z,89.29
2022-12-25T06:21:33.728Z,89.33
2022-12-25T06:27:44.222Z,88.78
2022-12-25T06:30:14.332Z,87.99
2022-12-25T06:32:41.389Z,88.18
2022-12-25T06:35:14.243Z,87.65
2022-12-25T06:37:41.204Z,88.32
2022-12-25T06:40:11.236Z,87.91
2022-12-25T06:42:38.389Z,85.20
2022-12-25T06:45:11.326Z,86.15
2022-12-25T06:47:41.141Z,85.01
2022-12-25T06:50:09.230Z,86.10
2022-12-25T06:52:39.736Z,87.40
2022-12-25T06:55:07.928Z,87.86
2022-12-25T06:57:36.258Z,87.96
2022-12-25T07:00:07.723Z,88.05
2022-12-25T07:02:39.906Z,87.60
2022-12-25T07:05:11.536Z,87.21
2022-12-25T07:07:38.798Z,87.54
2022-12-25T07:10:07.126Z,88.23
2022-12-25T07:12:39.986Z,87.32
2022-12-25T07:15:09.891Z,84.83
2022-12-25T07:17:57.245Z,86.82
2022-12-25T07:20:24.719Z,87.01
2022-12-25T07:22:51.531Z,87.06
2022-12-25T07:25:19.071Z,86.88
2022-12-25T07:27:47.260Z,86.31
2022-12-25T07:30:14.200Z,86.96
2022-12-25T07:32:44.328Z,88.15
2022-12-25T07:35:15.578Z,87.61
2022-12-25T07:37:42.351Z,87.38
2022-12-25T07:40:09.693Z,87.05
2022-12-25T07:42:36.783Z,86.98
2022-12-25T07:45:03.758Z,87.24
2022-12-25T07:47:38.610Z,85.42
2022-12-25T07:50:06.542Z,83.27
2022-12-25T07:52:41.436Z,83.03
2022-12-25T07:55:10.501Z,84.78
2022-12-25T07:57:37.339Z,83.83
2022-12-25T08:00:05.184Z,82.86
2022-12-25T08:02:32.435Z,81.77
2022-12-25T08:04:59.335Z,83.71
2022-12-25T08:07:26.086Z,85.58
2022-12-25T08:09:52.902Z,85.74
2022-12-25T08:12:19.634Z,85.99
2022-12-25T08:14:46.475Z,85.56
2022-12-25T08:17:15.046Z,82.92
2022-12-25T08:19:41.867Z,79.38
2022-12-25T08:22:14.234Z,76.54
2022-12-25T08:24:40.979Z,75.02
2022-12-25T08:27:07.845Z,74.67
2022-12-25T08:29:35.033Z,76.02
2022-12-25T08:32:02.206Z,74.58
2022-12-25T08:34:29.094Z,72.98
2022-12-25T08:36:55.846Z,72.82
2022-12-25T08:39:22.978Z,71.37
2022-12-25T08:41:49.694Z,70.67
2022-12-25T08:44:16.393Z,70.80
2022-12-25T08:46:43.751Z,71.49
2022-12-25T08:49:11.336Z,72.22
2022-12-25T08:51:44.325Z,71.26
2022-12-25T08:54:11.491Z,72.02
2022-12-25T08:56:38.190Z,73.05
2022-12-25T08:59:05.322Z,74.11
2022-12-25T09:01:32.717Z,73.21
2022-12-25T09:03:59.680Z,72.18
2022-12-25T09:06:26.458Z,71.93
2022-12-25T09:08:53.208Z,71.20
2022-12-25T09:11:20.200Z,72.27
2022-12-25T09:13:47.835Z,72.54
2022-12-25T09:16:20.848Z,71.32
2022-12-25T09:18:47.773Z,72.70
2022-12-25T09:21:15.300Z,73.73
2022-12-25T09:23:42.729Z,73.21
2022-12-25T09:26:12.245Z,72.33
2022-12-25T09:28:42.514Z,72.34
2022-12-25T09:31:13.617Z,70.53
2022-12-25T09:33:41.243Z,69.93
2022-12-25T09:36:08.609Z,69.92
2022-12-25T09:38:35.462Z,69.04
2022-12-25T09:41:27.579Z,69.43
2022-12-25T09:44:33.757Z,71.67
2022-12-25T09:47:06.987Z,70.97
2022-12-25T09:49:47.723Z,71.30
2022-12-25T09:52:20.120Z,72.79
2022-12-25T09:55:01.765Z,73.15
2022-12-25T09:57:31.450Z,72.58
2022-12-25T10:00:13.530Z,73.60
2022-12-25T10:03:06.729Z,74.97
2022-12-25T10:05:51.639Z,76.74
2022-12-25T10:08:32.919Z,77.49
2022-12-25T10:11:31.404Z,77.50
2022-12-25T10:14:25.465Z,77.27
2022-12-25T10:17:20.636Z,79.39
2022-12-25T10:19:56.722Z,77.60
2022-12-25T10:22:47.777Z,77.80
2022-12-25T10:25:21.277Z,78.06
2022-12-25T10:28:10.919Z,76.14
2022-12-25T10:30:37.993Z,76.18
2022-12-25T10:33:43.804Z,76.39
2022-12-25T10:36:10.504Z,75.74
2022-12-25T10:38:39.822Z,74.67
2022-12-25T10:41:32.255Z,72.82
2022-12-25T10:43:59.641Z,74.06
2022-12-25T10:46:29.744Z,74.25
2022-12-25T10:49:00.355Z,73.41
2022-12-25T10:51:38.555Z,73.95
2022-12-25T10:54:25.717Z,72.08
2022-12-25T10:57:13.903Z,71.55
2022-12-25T10:59:45.879Z,71.83
2022-12-25T11:02:24.164Z,71.90
2022-12-25T11:04:52.525Z,74.08
2022-12-25T11:07:25.346Z,71.63
2022-12-25T11:10:02.718Z,72.03
2022-12-25T11:12:36.876Z,72.80
2022-12-25T11:15:42.161Z,74.61
2022-12-25T11:18:28.528Z,76.16
2022-12-25T11:21:23.427Z,77.67
2022-12-25T11:24:05.842Z,76.13
2022-12-25T11:27:02.667Z,74.18
2022-12-25T11:29:46.829Z,75.47
2022-12-25T11:35:55.135Z,74.71
2022-12-25T11:38:25.780Z,72.71
2022-12-25T11:40:57.564Z,74.04
2022-12-25T11:43:30.055Z,74.13
2022-12-25T11:46:21.839Z,74.92
2022-12-25T11:48:52.075Z,74.34
2022-12-25T11:51:19.235Z,73.16
2022-12-25T11:53:55.935Z,71.18
2022-12-25T11:56:25.159Z,70.60
2022-12-25T11:59:07.100Z,71.33
2022-12-25T12:01:37.069Z,71.12
2022-12-25T12:04:16.920Z,70.32
2022-12-25T12:07:05.245Z,70.56
2022-12-25T12:09:41.639Z,70.73
2022-12-25T12:12:51.426Z,69.19
2022-12-25T12:15:42.042Z,69.77
2022-12-25T12:18:32.240Z,72.66
2022-12-25T12:21:08.995Z,71.35
2022-12-25T12:27:40.225Z,72.02
2022-12-25T12:30:11.364Z,72.44
2022-12-25T12:32:45.577Z,72.86
2022-12-25T12:35:21.423Z,74.34
2022-12-25T12:37:52.454Z,74.40
2022-12-25T12:40:57.596Z,75.32
2022-12-25T12:43:59.702Z,73.55
2022-12-25T12:46:35.980Z,72.61
2022-12-25T12:49:29.861Z,72.31
2022-12-25T12:52:03.720Z,71.23
2022-12-25T12:54:33.119Z,74.50
2022-12-25T12:57:03.741Z,76.97
2022-12-25T12:59:43.211Z,76.09
2022-12-25T13:02:50.378Z,72.41
2022-12-25T13:05:54.813Z,73.06
2022-12-25T13:09:16.651Z,72.62
2022-12-25T13:11:47.074Z,70.57
2022-12-25T13:14:33.718Z,70.40
2022-12-25T13:17:06.905Z,69.71
2022-12-25T13:19:33.682Z,67.86
2022-12-25T13:22:10.631Z,68.60
2022-12-25T13:24:38.101Z,67.86
2022-12-25T13:27:25.845Z,68.16
2022-12-25T13:29:52.805Z,68.92
2022-12-25T13:32:25.185Z,68.21
2022-12-25T13:34:52.346Z,67.39
2022-12-25T13:37:23.987Z,70.74
2022-12-25T13:39:56.203Z,70.53
2022-12-25T13:42:25.141Z,71.11
2022-12-25T13:45:07.705Z,69.85
2022-12-25T13:47:39.493Z,69.48
2022-12-25T13:50:23.956Z,71.02
2022-12-25T13:52:57.855Z,72.76
2022-12-25T13:55:27.571Z,73.11
2022-12-25T13:58:06.775Z,76.88
2022-12-25T14:01:13.729Z,76.42
2022-12-25T14:03:43.008Z,74.99
2022-12-25T14:06:26.344Z,74.53
2022-12-25T14:08:55.073Z,75.50
2022-12-25T14:11:24.066Z,70.81
2022-12-25T14:13:58.625Z,75.46
2022-12-25T14:16:25.818Z,74.06
2022-12-25T14:18:59.114Z,73.32
2022-12-25T14:21:30.999Z,73.83
2022-12-25T14:23:57.928Z,75.45
2022-12-25T14:26:33.760Z,73.44
2022-12-25T14:29:16.883Z,74.99
2022-12-25T14:31:48.954Z,71.79
2022-12-25T14:34:22.971Z,74.87
2022-12-25T14:36:50.749Z,71.74
2022-12-25T14:39:31.634Z,71.99
2022-12-25T14:41:59.071Z,73.52
2022-12-25T14:44:29.015Z,73.70
2022-12-25T14:47:05.740Z,72.77
2022-12-25T14:49:34.319Z,70.48
2022-12-25T14:52:04.180Z,69.76
2022-12-25T14:54:31.191Z,69.54
2022-12-25T14:56:58.143Z,74.28
2022-12-25T14:59:25.414Z,71.25
2022-12-25T15:01:54.410Z,71.78
2022-12-25T15:04:21.305Z,73.47
2022-12-25T15:06:59.468Z,72.06
2022-12-25T15:09:29.415Z,70.12
2022-12-25T15:11:56.234Z,69.18
2022-12-25T15:14:23.893Z,69.84
2022-12-25T15:16:55.688Z,71.70
2022-12-25T15:19:40.817Z,71.14
2022-12-25T15:22:09.494Z,69.72
2022-12-25T15:24:37.078Z,69.35
2022-12-25T15:27:03.787Z,70.23
2022-12-25T15:30:09.198Z,71.16
2022-12-25T15:32:23.377Z,74.48
2022-12-25T15:34:50.347Z,74.64
2022-12-25T15:37:18.552Z,78.11
2022-12-25T15:39:45.363Z,78.27
2022-12-25T15:42:17.087Z,81.04
2022-12-25T15:44:43.920Z,77.09
2022-12-25T15:47:15.638Z,76.59
2022-12-25T15:49:43.432Z,79.55
2022-12-25T15:52:11.783Z,78.82
2022-12-25T15:54:38.858Z,78.48
2022-12-25T15:57:06.905Z,76.51
2022-12-25T15:59:36.451Z,73.94
2022-12-25T16:02:03.633Z,73.57
2022-12-25T16:04:34.240Z,78.31
2022-12-25T16:07:04.096Z,80.22
2022-12-25T16:09:31.289Z,78.36
2022-12-25T16:11:58.515Z,77.78
2022-12-25T16:14:25.718Z,80.69
2022-12-25T16:19:38.359Z,80.24
2022-12-25T16:22:17.239Z,80.68
2022-12-25T16:24:47.907Z,81.61
2022-12-25T16:27:15.095Z,82.21
2022-12-25T16:29:42.221Z,82.28
2022-12-25T16:32:11.837Z,82.69
2022-12-25T16:34:41.414Z,82.61
2022-12-25T16:37:08.622Z,82.70
2022-12-25T16:39:36.915Z,81.04
2022-12-25T16:42:04.170Z,82.48
2022-12-25T16:44:36.290Z,82.79
2022-12-25T16:47:09.147Z,82.39
2022-12-25T16:49:38.852Z,82.78
2022-12-25T16:52:07.322Z,81.94
2022-12-25T16:54:35.251Z,83.85
2022-12-25T16:57:02.347Z,83.37
2022-12-25T16:59:34.416Z,82.24
2022-12-25T17:02:07.332Z,84.52
2022-12-25T17:04:34.665Z,84.48
2022-12-25T17:07:04.095Z,84.34
2022-12-25T17:09:31.518Z,83.44
2022-12-25T17:11:58.544Z,83.92
2022-12-25T17:14:27.118Z,83.79
2022-12-25T17:17:01.520Z,83.62
2022-12-25T17:19:28.894Z,84.14
2022-12-25T17:21:55.657Z,85.11
2022-12-25T17:24:22.801Z,84.21
2022-12-25T17:26:49.841Z,84.09
2022-12-25T17:29:22.086Z,84.18
2022-12-25T17:34:33.165Z,84.49
2022-12-25T17:37:03.307Z,84.22
2022-12-25T17:39:30.356Z,85.26
2022-12-25T17:41:57.088Z,83.87
2022-12-25T17:44:29.832Z,83.98
2022-12-25T17:47:07.261Z,85.63
2022-12-25T17:49:34.337Z,84.11
2022-12-25T17:52:06.914Z,83.39
2022-12-25T17:54:33.970Z,84.49
2022-12-25T17:57:01.748Z,82.98
2022-12-25T17:59:28.841Z,83.46
2022-12-25T18:01:56.078Z,84.29
2022-12-25T18:04:24.327Z,85.25
2022-12-25T18:06:51.119Z,84.23
2022-12-25T18:09:17.837Z,85.74
2022-12-25T18:11:45.526Z,85.58
2022-12-25T18:14:13.883Z,85.34
2022-12-25T18:16:41.536Z,85.84
2022-12-25T18:19:08.468Z,85.29
2022-12-25T18:21:35.860Z,86.00
2022-12-25T18:24:03.972Z,86.30
2022-12-25T18:26:31.126Z,86.04
2022-12-25T18:28:57.855Z,85.88
2022-12-25T18:31:26.263Z,85.16
2022-12-25T18:33:53.348Z,85.33
2022-12-25T18:36:23.177Z,85.87
2022-12-25T18:38:50.650Z,85.89
2022-12-25T18:41:18.011Z,86.39
2022-12-25T18:43:52.533Z,86.63
2022-12-25T18:46:26.034Z,86.70
2022-12-25T18:48:56.186Z,86.57
2022-12-25T18:51:23.012Z,86.14
2022-12-25T18:53:52.463Z,85.91
2022-12-25T18:56:19.278Z,86.20
2022-12-25T18:58:47.427Z,86.25
2022-12-25T19:01:16.050Z,86.34
2022-12-25T19:03:43.320Z,86.72
2022-12-25T19:06:16.007Z,86.68
2022-12-25T19:08:42.777Z,87.15
2022-12-25T19:11:09.587Z,87.84
2022-12-25T19:13:36.369Z,87.52
2022-12-25T19:16:04.023Z,87.02
2022-12-25T19:18:30.950Z,86.66
2022-12-25T19:21:02.361Z,86.56
2022-12-25T19:23:29.140Z,86.81
2022-12-25T19:25:55.896Z,87.33
2022-12-25T19:28:22.656Z,86.97
2022-12-25T19:30:49.757Z,87.08
2022-12-25T19:33:18.119Z,87.19
2022-12-25T19:35:45.532Z,87.04
2022-12-25T19:38:13.824Z,86.76
2022-12-25T19:40:41.172Z,87.36
2022-12-25T19:43:07.869Z,87.22
2022-12-25T19:45:34.659Z,87.17
2022-12-25T19:48:03.356Z,87.72
2022-12-25T19:50:31.830Z,87.78
2022-12-25T19:52:58.892Z,86.62
2022-12-25T19:55:25.896Z,87.91
2022-12-25T19:57:52.837Z,88.57
2022-12-25T20:00:19.989Z,89.07
2022-12-25T20:02:52.951Z,88.48
2022-12-25T20:05:20.217Z,87.55
2022-12-25T20:07:49.924Z,87.14
2022-12-25T20:10:17.209Z,87.41
2022-12-25T20:12:47.178Z,86.81
2022-12-25T20:15:15.119Z,87.13
2022-12-25T20:17:42.663Z,86.58
2022-12-25T20:20:10.967Z,86.37
2022-12-25T20:22:38.933Z,86.27
2022-12-25T20:25:07.549Z,86.69
2022-12-25T20:27:34.750Z,87.33
2022-12-25T20:30:01.767Z,86.41
2022-12-25T20:32:34.687Z,87.37
2022-12-25T20:35:01.714Z,87.69
2022-12-25T20:37:28.825Z,86.99
2022-12-25T20:40:01.669Z,87.73
2022-12-25T20:42:28.834Z,87.30
2022-12-25T20:44:57.620Z,85.72
2022-12-25T20:47:25.753Z,85.43
2022-12-25T20:49:55.246Z,85.46
2022-12-25T20:52:22.517Z,84.01
2022-12-25T20:54:52.282Z,85.48
2022-12-25T20:57:19.261Z,83.28
2022-12-25T20:59:47.085Z,85.86
2022-12-25T21:02:35.650Z,86.24
2022-12-25T21:05:01.700Z,86.89
2022-12-25T21:07:34.444Z,84.53
2022-12-25T21:10:01.635Z,84.74
2022-12-25T21:12:30.075Z,84.72
2022-12-25T21:14:59.881Z,84.97
2022-12-25T21:17:26.872Z,84.69
2022-12-25T21:19:53.721Z,84.17
2022-12-25T21:22:20.809Z,85.31
2022-12-25T21:24:48.784Z,84.03
2022-12-25T21:27:20.864Z,84.09
2022-12-25T21:29:48.797Z,83.89
2022-12-25T21:32:17.066Z,84.75
2022-12-25T21:34:44.405Z,84.36
2022-12-25T21:37:12.343Z,85.38
2022-12-25T21:39:41.925Z,84.21
2022-12-25T21:42:14.245Z,85.57
2022-12-25T21:44:46.131Z,84.78
2022-12-25T21:47:27.924Z,85.53
2022-12-25T21:50:17.481Z,85.77
2022-12-25T21:52:44.682Z,86.69
2022-12-25T21:55:17.425Z,86.65
2022-12-25T21:57:44.440Z,86.89
2022-12-25T22:00:17.248Z,86.62
2022-12-25T22:02:44.440Z,86.71
2022-12-25T22:05:11.461Z,87.09
2022-12-25T22:07:43.638Z,86.47
2022-12-25T22:10:15.685Z,86.27
2022-12-25T22:12:42.750Z,86.36
2022-12-25T22:15:15.430Z,87.09
2022-12-25T22:17:43.082Z,86.98
2022-12-25T22:20:16.860Z,87.09
2022-12-25T22:22:44.902Z,87.21
2022-12-25T22:25:14.562Z,86.54
2022-12-25T22:27:42.294Z,85.58
2022-12-25T22:30:14.614Z,86.89
2022-12-25T22:32:47.499Z,87.18
2022-12-25T22:35:20.506Z,87.31
2022-12-25T22:37:47.695Z,86.09
2022-12-25T22:40:18.201Z,87.46
2022-12-25T22:42:45.180Z,87.45
2022-12-25T22:45:14.966Z,86.48
2022-12-25T22:48:02.632Z,87.04
2022-12-25T22:50:29.611Z,87.90
2022-12-25T22:53:02.323Z,88.48
2022-12-25T22:55:34.012Z,88.19
2022-12-25T22:58:06.773Z,88.71
2022-12-25T23:00:33.716Z,86.26
2022-12-25T23:03:00.764Z,87.49
2022-12-25T23:05:27.900Z,88.34
2022-12-25T23:07:54.850Z,88.54
2022-12-25T23:10:27.854Z,88.55
2022-12-25T23:12:57.548Z,88.96
2022-12-25T23:15:28.179Z,89.20
2022-12-25T23:17:55.411Z,89.25
2022-12-25T23:20:24.890Z,88.71
2022-12-25T23:22:51.842Z,89.39
2022-12-25T23:25:19.053Z,89.39
2022-12-25T23:27:46.135Z,89.64
2022-12-25T23:30:19.084Z,89.62
2022-12-25T23:32:54.580Z,89.42
2022-12-25T23:35:27.417Z,89.41
2022-12-25T23:38:00.229Z,89.35
2022-12-25T23:40:27.179Z,88.95
2022-12-25T23:42:54.098Z,89.46
2022-12-25T23:45:26.773Z,88.90
2022-12-25T23:47:57.272Z,89.08
2022-12-25T23:50:24.218Z,89.43
2022-12-25T23:52:52.097Z,89.58
2022-12-25T23:55:21.193Z,89.33
2022-12-25T23:57:50.713Z,89.96
